createdAt,value
2023-04-17T00:16:11.212Z,60.7
2023-04-17T00:24:22.873Z,74
2023-04-17T00:26:24.958Z,72.8
2023-04-17T00:28:27.065Z,64.9
2023-04-17T00:30:29.170Z,70.1
2023-04-17T00:34:33.333Z,59
2023-04-17T00:36:38.685Z,67
2023-04-17T00:38:40.792Z,55.2
2023-04-17T00:40:42.868Z,65
2023-04-17T00:42:44.998Z,70.9
2023-04-17T00:44:47.082Z,64.4
2023-04-17T00:48:52.821Z,64.3
2023-04-17T00:50:58.146Z,64.2
2023-04-17T00:53:00.262Z,66.3
2023-04-17T00:55:02.339Z,59.8
2023-04-17T00:56:05.041Z,70.6
2023-04-17T01:00:09.213Z,70.6
2023-04-17T01:04:16.831Z,71.6
2023-04-17T01:06:18.766Z,70.9
2023-04-17T01:08:20.855Z,66.2
2023-04-17T01:10:22.958Z,54.6
2023-04-17T01:12:25.033Z,60.6
2023-04-17T01:14:27.142Z,62.9
2023-04-17T01:16:29.304Z,53.4
2023-04-17T01:18:34.580Z,66.9
2023-04-17T01:20:37.763Z,62.3
2023-04-17T01:22:38.800Z,61.5
2023-04-17T01:24:40.852Z,67.7
2023-04-17T01:26:42.978Z,71.2
2023-04-17T01:28:45.115Z,67.8
2023-04-17T01:30:47.276Z,61.7
2023-04-17T01:32:52.608Z,58.8
2023-04-17T01:34:54.658Z,58.8
2023-04-17T01:36:56.727Z,57.7
2023-04-17T01:41:00.901Z,53.9
2023-04-17T01:47:10.460Z,59.2
2023-04-17T01:49:12.678Z,46.6
2023-04-17T01:53:43.472Z,58
2023-04-17T01:55:45.601Z,52.1
2023-04-17T01:57:47.679Z,54.2
2023-04-17T01:59:52.994Z,49.2
2023-04-17T02:05:59.275Z,56.3
2023-04-17T02:08:01.367Z,49.3
2023-04-17T02:10:03.455Z,53
2023-04-17T02:14:10.880Z,49.4
2023-04-17T02:18:15.045Z,47.2
2023-04-17T02:22:19.226Z,56.4
2023-04-17T02:26:23.396Z,79.4
2023-04-17T02:30:30.828Z,58.3
2023-04-17T02:32:32.932Z,65.3
2023-04-17T02:34:34.981Z,60.3
2023-04-17T02:36:37.073Z,60.2
2023-04-17T02:38:39.181Z,65.3
2023-04-17T02:40:41.266Z,51.6
2023-04-17T02:42:46.610Z,62
2023-04-17T02:44:48.666Z,66.4
2023-04-17T02:46:50.780Z,61.7
2023-04-17T02:47:53.465Z,65.1
2023-04-17T02:49:55.505Z,65.3
2023-04-17T02:51:57.599Z,62.7
2023-04-17T02:53:59.722Z,55.4
2023-04-17T02:56:05.040Z,62.2
2023-04-17T02:58:07.129Z,64.8
2023-04-17T03:00:09.203Z,65.8
2023-04-17T03:02:11.405Z,59.6
2023-04-17T03:04:13.424Z,62.9
2023-04-17T03:06:15.485Z,67.9
2023-04-17T03:08:17.559Z,57.9
2023-04-17T03:10:22.878Z,68.5
2023-04-17T03:12:24.988Z,66.9
2023-04-17T03:14:27.074Z,63.4
2023-04-17T03:16:29.207Z,52
2023-04-17T03:20:33.312Z,73.9
2023-04-17T03:28:44.879Z,71.8
2023-04-17T03:44:05.312Z,79.7
2023-04-17T03:46:07.467Z,95.6
2023-04-17T03:48:09.542Z,76.6
2023-04-17T03:50:11.550Z,68.4
2023-04-17T03:52:16.875Z,93.4
2023-04-17T03:54:18.970Z,74.6
2023-04-17T03:56:21.038Z,85.2
2023-04-17T03:58:23.092Z,80.6
2023-04-17T04:02:27.393Z,79.3
2023-04-17T04:04:29.530Z,81.8
2023-04-17T04:06:34.653Z,94.5
2023-04-17T04:08:36.706Z,80.7
2023-04-17T04:10:38.809Z,106.4
2023-04-17T04:12:40.884Z,85.2
2023-04-17T04:14:42.998Z,90.7
2023-04-17T04:16:45.053Z,95.5
2023-04-17T04:18:47.107Z,82.3
2023-04-17T04:20:52.489Z,88.9
2023-04-17T04:22:54.528Z,74.1
2023-04-17T04:24:56.637Z,94.3
2023-04-17T04:26:58.663Z,72.7
2023-04-17T04:29:00.754Z,86.4
2023-04-17T04:31:03.008Z,89.2
2023-04-17T04:40:17.038Z,93.7
2023-04-17T04:42:19.112Z,90.8
2023-04-17T04:46:23.299Z,99.5
2023-04-17T04:48:28.579Z,92.1
2023-04-17T04:52:32.773Z,91.3
2023-04-17T04:54:34.821Z,81.1
2023-04-17T04:56:36.935Z,84.9
2023-04-17T04:58:38.999Z,78.8
2023-04-17T05:00:41.118Z,89.5
2023-04-17T05:02:46.595Z,94.9
2023-04-17T05:04:48.517Z,88.4
2023-04-17T05:06:50.563Z,84.6
2023-04-17T05:08:52.641Z,75.7
2023-04-17T05:10:54.722Z,80.1
2023-04-17T05:12:56.796Z,86.2
2023-04-17T05:14:58.867Z,93.1
2023-04-17T05:17:04.186Z,100.1
2023-04-17T05:19:06.296Z,89.9
2023-04-17T05:21:08.358Z,83.3
2023-04-17T05:23:10.434Z,98.9
2023-04-17T05:27:14.583Z,97
2023-04-17T05:29:16.682Z,89.9
2023-04-17T05:31:22.055Z,100
2023-04-17T05:35:26.157Z,96
2023-04-17T05:37:55.001Z,103
2023-04-17T05:39:57.084Z,116.1
2023-04-17T05:41:59.157Z,116.8
2023-04-17T05:44:04.494Z,107.3
2023-04-17T05:46:06.614Z,119.8
2023-04-17T05:50:10.707Z,113.1
2023-04-17T05:52:12.792Z,102.5
2023-04-17T05:56:16.953Z,101.4
2023-04-17T05:58:24.202Z,113.8
2023-04-17T06:06:30.623Z,103.7
2023-04-17T06:08:32.674Z,101.4
2023-04-17T06:14:42.174Z,90.5
2023-04-17T06:24:52.589Z,94.5
2023-04-17T06:26:57.989Z,90.7
2023-04-17T06:28:59.986Z,82.6
2023-04-17T06:31:02.167Z,97.2
2023-04-17T06:32:04.736Z,86.8
2023-04-17T06:36:08.941Z,90.9
2023-04-17T06:38:12.562Z,90.1
2023-04-17T06:40:17.874Z,92.5
2023-04-17T06:42:19.977Z,86.4
2023-04-17T06:46:24.064Z,94.6
2023-04-17T06:48:26.097Z,92.8
2023-04-17T06:50:28.218Z,92.2
2023-04-17T06:52:30.366Z,85.7
2023-04-17T06:54:35.640Z,85.5
2023-04-17T06:56:37.718Z,90.7
2023-04-17T06:58:39.812Z,95.2
2023-04-17T07:00:41.900Z,92.9
2023-04-17T07:25:13.552Z,82.7
2023-04-17T07:27:15.665Z,91.4
2023-04-17T07:28:18.356Z,89.6
2023-04-17T07:34:24.632Z,75.5
2023-04-17T07:42:36.309Z,72
2023-04-17T07:44:38.436Z,69.4
2023-04-17T07:46:40.613Z,76.6
2023-04-17T07:48:42.667Z,77.3
2023-04-17T07:50:48.012Z,80.3
2023-04-17T07:52:50.118Z,74.2
2023-04-17T07:54:52.277Z,77.9
2023-04-17T07:56:54.369Z,76.5
2023-04-17T07:58:56.487Z,68.4
2023-04-17T08:05:06.391Z,71.6
2023-04-17T08:07:08.196Z,72.6
2023-04-17T08:09:10.543Z,82
2023-04-17T08:11:12.419Z,68.1
2023-04-17T08:13:14.539Z,66.7
2023-04-17T08:24:31.035Z,64
2023-04-17T08:26:33.182Z,81.5
2023-04-17T08:30:37.474Z,60.5
2023-04-17T08:32:42.854Z,78
2023-04-17T08:34:44.889Z,61.8
2023-04-17T08:36:46.990Z,67.2
2023-04-17T08:38:49.071Z,68
2023-04-17T08:44:55.416Z,62.2
2023-04-17T08:51:05.065Z,56.6
2023-04-17T08:53:07.208Z,70.4
2023-04-17T08:55:09.326Z,50.2
2023-04-17T08:57:11.374Z,52.6
2023-04-17T08:59:13.519Z,53.9
2023-04-17T09:01:18.721Z,54.6
2023-04-17T09:03:20.942Z,53.7
2023-04-17T09:13:31.431Z,53
2023-04-17T09:15:36.869Z,49.2
2023-04-17T09:19:41.008Z,45.8
2023-04-17T09:22:09.846Z,44
2023-04-17T09:24:11.933Z,52.2
2023-04-17T09:26:14.013Z,44.9
2023-04-17T09:28:19.165Z,51.2
2023-04-17T09:30:21.228Z,52.1
2023-04-17T09:32:23.395Z,43.3
2023-04-17T09:34:25.431Z,43.1
2023-04-17T09:36:27.583Z,48.2
2023-04-17T09:38:29.576Z,49.6
2023-04-17T09:40:31.613Z,45.9
2023-04-17T09:42:36.863Z,49.1
2023-04-17T09:44:38.897Z,46.5
2023-04-17T09:46:41.060Z,41.8
2023-04-17T09:48:43.039Z,46
2023-04-17T09:50:45.104Z,39.9
2023-04-17T09:52:47.145Z,43
2023-04-17T09:56:54.387Z,47.6
2023-04-17T09:58:56.465Z,44.4
2023-04-17T10:00:58.583Z,49.4
2023-04-17T10:05:02.677Z,43.8
2023-04-17T10:07:04.766Z,39.9
2023-04-17T10:09:06.812Z,50.1
2023-04-17T10:11:12.032Z,40.9
2023-04-17T10:13:14.091Z,39.1
2023-04-17T10:15:16.137Z,40.4
2023-04-17T10:16:18.775Z,40.3
2023-04-17T10:18:20.843Z,47.8
2023-04-17T10:26:32.208Z,44.8
2023-04-17T10:34:42.555Z,38.6
2023-04-17T10:38:47.803Z,43.6
2023-04-17T10:40:49.864Z,37.7
2023-04-17T10:42:52.287Z,48.8
2023-04-17T10:44:54.016Z,43.6
2023-04-17T10:46:56.093Z,42.7
2023-04-17T10:48:58.225Z,41.5
2023-04-17T10:51:00.265Z,41
2023-04-17T10:53:05.461Z,39.9
2023-04-17T10:55:07.602Z,40.5
2023-04-17T10:57:09.623Z,45.4
2023-04-17T10:59:12.220Z,38.2
2023-04-17T11:01:13.803Z,34.4
2023-04-17T11:03:16.074Z,40.1
2023-04-17T11:05:17.912Z,33.3
2023-04-17T11:12:29.902Z,36.5
2023-04-17T11:16:34.155Z,31
2023-04-17T11:18:36.179Z,30
2023-04-17T11:20:41.396Z,34.3
2023-04-17T11:22:43.466Z,38.6
2023-04-17T11:32:53.970Z,29.7
2023-04-17T11:47:11.646Z,36.6
2023-04-17T11:53:21.024Z,43.2
2023-04-17T11:55:23.115Z,34.7
2023-04-17T11:57:25.236Z,37.8
2023-04-17T11:59:27.288Z,25.8
2023-04-17T12:03:35.107Z,36.2
2023-04-17T12:07:38.781Z,34.3
2023-04-17T12:08:41.429Z,25.7
2023-04-17T12:10:43.500Z,30.7
2023-04-17T12:14:47.654Z,28.1
2023-04-17T12:16:52.924Z,43.2
2023-04-17T12:18:55.013Z,22.6
2023-04-17T12:20:57.097Z,25.7
2023-04-17T12:22:59.202Z,22
2023-04-17T12:31:12.292Z,29.3
2023-04-17T12:33:14.322Z,28.7
2023-04-17T12:47:32.102Z,32.6
2023-04-17T12:49:34.178Z,29
2023-04-17T12:51:36.263Z,21.5
2023-04-17T12:53:38.379Z,24.4
2023-04-17T12:55:40.485Z,29.8
2023-04-17T12:59:47.775Z,24.1
2023-04-17T13:03:52.094Z,27.9
2023-04-17T13:06:20.531Z,26.1
2023-04-17T13:08:22.640Z,26.2
2023-04-17T13:10:24.719Z,22.6
2023-04-17T13:26:47.768Z,22.1
2023-04-17T13:32:54.073Z,16.2
2023-04-17T13:34:58.127Z,21.5
2023-04-17T13:36:58.204Z,15.5
2023-04-17T13:39:00.298Z,28.7
2023-04-17T13:41:05.535Z,16
2023-04-17T13:43:07.636Z,18.1
2023-04-17T13:45:09.707Z,18.1
2023-04-17T13:47:11.806Z,12.9
2023-04-17T13:49:14.044Z,10.8
2023-04-17T13:51:16.014Z,14.9
2023-04-17T13:53:18.054Z,13.5
2023-04-17T13:55:23.280Z,17.5
2023-04-17T13:57:25.414Z,16.5
2023-04-17T14:00:30.127Z,22.8
2023-04-17T14:02:32.489Z,20.9
2023-04-17T14:08:43.633Z,14.8
2023-04-17T14:10:43.692Z,29.1
2023-04-17T14:12:45.786Z,21.5
2023-04-17T14:14:47.858Z,25
2023-04-17T14:18:52.090Z,18.4
2023-04-17T14:20:54.148Z,19.8
2023-04-17T14:22:59.396Z,19.6
2023-04-17T14:31:07.816Z,15.7
2023-04-17T14:33:09.792Z,19.5
2023-04-17T14:35:11.894Z,14.7
2023-04-17T14:37:17.144Z,23.5
2023-04-17T14:39:19.255Z,20.8
2023-04-17T14:41:21.387Z,24.5
2023-04-17T14:43:23.393Z,16.9
2023-04-17T14:45:25.512Z,39.3
2023-04-17T14:47:29.879Z,21
2023-04-17T14:49:29.677Z,22.1
2023-04-17T14:51:34.907Z,23.3
2023-04-17T14:53:36.984Z,16.4
2023-04-17T14:55:39.063Z,16.2
2023-04-17T14:56:41.698Z,16.2
2023-04-17T14:58:43.782Z,16.5
2023-04-17T15:04:55.147Z,17.3
2023-04-17T15:08:57.379Z,20.2
2023-04-17T15:10:59.485Z,19.7
2023-04-17T15:13:01.567Z,18
2023-04-17T15:17:05.777Z,15.3
2023-04-17T15:19:11.149Z,17.8
2023-04-17T15:21:13.088Z,16.9
2023-04-17T15:23:15.155Z,19.6
2023-04-17T15:25:17.235Z,14.8
2023-04-17T15:27:19.325Z,14.9
2023-04-17T15:29:21.430Z,18
2023-04-17T15:31:23.588Z,18.8
2023-04-17T15:33:28.741Z,14.3
2023-04-17T15:35:31.208Z,24.5
2023-04-17T15:37:33.298Z,16.1
2023-04-17T15:39:35.384Z,13.7
2023-04-17T15:41:37.460Z,23.3
2023-04-17T15:43:39.565Z,15.8
2023-04-17T15:51:51.094Z,26.1
2023-04-17T15:52:53.698Z,18.5
2023-04-17T15:54:55.789Z,15.4
2023-04-17T15:56:57.909Z,15.2
2023-04-17T15:58:59.975Z,15.6
2023-04-17T16:01:05.611Z,20.2
2023-04-17T16:03:07.391Z,16.6
2023-04-17T16:05:09.384Z,21.9
2023-04-17T16:07:11.476Z,18.8
2023-04-17T16:09:13.774Z,19.3
2023-04-17T16:11:16.919Z,19.3
2023-04-17T16:13:17.750Z,17.9
2023-04-17T16:15:22.979Z,15.8
2023-04-17T16:17:25.105Z,16.6
2023-04-17T16:19:27.189Z,14.8
2023-04-17T16:21:29.346Z,13.3
2023-04-17T16:23:31.347Z,14.8
2023-04-17T16:25:33.417Z,18.9
2023-04-17T16:27:35.549Z,16.8
2023-04-17T16:29:40.782Z,20.9
2023-04-17T16:31:45.859Z,18.6
2023-04-17T16:33:44.960Z,15.2
2023-04-17T16:35:47.041Z,16.5
2023-04-17T16:39:51.216Z,13.7
2023-04-17T16:54:35.591Z,14.6
2023-04-17T16:56:40.774Z,15.1
2023-04-17T16:58:42.864Z,22.5
2023-04-17T17:00:45.034Z,18.4
2023-04-17T17:02:47.098Z,13.4
2023-04-17T17:04:49.192Z,17.8
2023-04-17T17:08:55.130Z,13.4
2023-04-17T17:13:00.629Z,14.9
2023-04-17T17:15:02.725Z,15.4
2023-04-17T17:19:06.925Z,24.6
2023-04-17T17:21:08.992Z,14.4
2023-04-17T17:23:11.100Z,11.4
2023-04-17T17:25:16.319Z,17.5
2023-04-17T17:27:18.409Z,21.2
2023-04-17T17:29:20.557Z,14.2
2023-04-17T17:31:22.733Z,15.8
2023-04-17T17:33:24.680Z,14.8
2023-04-17T17:35:26.786Z,14.2
2023-04-17T17:37:28.898Z,12.5
2023-04-17T17:39:34.093Z,16.4
2023-04-17T17:41:36.204Z,11.3
2023-04-17T17:43:38.300Z,17.6
2023-04-17T17:44:40.908Z,22
2023-04-17T17:48:45.094Z,15.6
2023-04-17T17:58:58.650Z,213
2023-04-17T18:03:03.039Z,41.9
2023-04-17T18:09:12.193Z,21.1
2023-04-17T18:11:14.290Z,15.8
2023-04-17T18:13:16.350Z,12.3
2023-04-17T18:15:18.420Z,16.2
2023-04-17T18:17:20.601Z,20.3
2023-04-17T18:19:22.576Z,17.6
2023-04-17T18:21:27.767Z,22.2
2023-04-17T18:29:37.614Z,24.8
2023-04-17T18:31:39.735Z,17.3
2023-04-17T18:40:53.828Z,68.1
2023-04-17T18:44:57.959Z,83.2
2023-04-17T18:47:00.084Z,282.2
2023-04-17T18:49:05.233Z,201.6
2023-04-17T18:51:07.306Z,66.4
2023-04-17T18:55:11.421Z,17.3
2023-04-17T18:57:13.502Z,18.6
2023-04-17T18:59:15.769Z,19.1
2023-04-17T19:03:23.068Z,13.5
2023-04-17T19:11:31.188Z,17.8
2023-04-17T19:19:42.774Z,12.7
2023-04-17T19:23:46.904Z,9.7
2023-04-17T19:25:48.992Z,18.6
2023-04-17T19:27:51.037Z,11.4
2023-04-17T19:31:58.826Z,46.8
2023-04-17T19:34:00.499Z,26.1
2023-04-17T19:36:02.566Z,18.1
2023-04-17T19:41:09.327Z,44.5
2023-04-17T19:43:11.344Z,24.2
2023-04-17T19:45:16.569Z,25.9
2023-04-17T20:01:36.617Z,22.2
2023-04-17T20:05:40.744Z,13
2023-04-17T20:11:47.113Z,10.9
2023-04-17T20:15:54.509Z,10.4
2023-04-17T20:34:43.299Z,15.9
2023-04-17T20:36:46.270Z,11.9
2023-04-17T20:38:41.690Z,16.5
2023-04-17T20:40:47.078Z,27.4
2023-04-17T20:42:49.209Z,17
2023-04-17T20:46:53.506Z,14.7
2023-04-17T20:48:55.678Z,16.1
2023-04-17T20:50:59.174Z,27.7
2023-04-17T20:52:59.968Z,18
2023-04-17T20:55:05.246Z,13.5
2023-04-17T20:57:07.395Z,31
2023-04-17T20:59:09.536Z,14.7
2023-04-17T21:01:11.659Z,19.5
2023-04-17T21:03:13.895Z,24.5
2023-04-17T21:05:15.965Z,18.5
2023-04-17T21:07:18.073Z,21.1
2023-04-17T21:09:23.495Z,17.4
2023-04-17T21:11:25.631Z,28.4
2023-04-17T21:13:27.766Z,17.7
2023-04-17T21:15:29.841Z,18.6
2023-04-17T21:19:34.064Z,24.5
2023-04-17T21:21:36.171Z,26.8
2023-04-17T21:23:41.452Z,23
2023-04-17T21:25:43.612Z,31.8
2023-04-17T21:28:48.432Z,22.8
2023-04-17T21:34:54.844Z,29.2
2023-04-17T21:37:00.187Z,28.4
2023-04-17T21:39:02.347Z,42.3
2023-04-17T21:41:06.485Z,29
2023-04-17T21:43:06.670Z,27.3
2023-04-17T21:45:08.827Z,26
2023-04-17T21:47:10.935Z,31.5
2023-04-17T21:49:13.088Z,26.9
2023-04-17T21:51:19.000Z,32.5
2023-04-17T21:53:20.550Z,30.4
2023-04-17T21:55:22.702Z,35
2023-04-17T21:57:24.822Z,30.1
2023-04-17T21:59:26.931Z,32
2023-04-17T22:01:29.704Z,33.8
2023-04-17T22:03:31.188Z,31.7
2023-04-17T22:05:36.528Z,28.3
2023-04-17T22:07:51.672Z,31.6
2023-04-17T22:09:40.779Z,28.2
2023-04-17T22:11:45.657Z,32.7
2023-04-17T22:13:45.078Z,30.5
2023-04-17T22:15:47.107Z,24.7
2023-04-17T22:17:49.248Z,34.8
2023-04-17T22:19:54.580Z,34.9
2023-04-17T22:21:57.043Z,34.7
2023-04-17T22:23:58.801Z,27.7
2023-04-17T22:25:01.557Z,30.9
2023-04-17T22:27:03.608Z,26.2
2023-04-17T22:29:05.713Z,28.4
2023-04-17T22:37:17.440Z,31
2023-04-17T22:39:19.567Z,22.5
2023-04-17T22:41:21.591Z,23.2
2023-04-17T22:43:23.697Z,19.5
2023-04-17T22:45:25.821Z,20.7
2023-04-17T22:47:31.150Z,15.6
2023-04-17T22:49:33.251Z,19.5
2023-04-17T22:51:35.367Z,22.5
2023-04-17T22:53:37.465Z,16.5
2023-04-17T22:55:39.661Z,23.6
2023-04-17T22:57:41.670Z,18.5
2023-04-17T22:59:43.841Z,25.8
2023-04-17T23:01:49.133Z,19.4
2023-04-17T23:11:59.637Z,24
2023-04-17T23:14:01.714Z,18.4
2023-04-17T23:21:14.914Z,20.8
2023-04-17T23:23:17.045Z,23.8
2023-04-17T23:25:19.135Z,28.6
2023-04-17T23:27:21.203Z,20.4
2023-04-17T23:29:26.544Z,14.2
2023-04-17T23:31:28.680Z,19
2023-04-17T23:33:30.738Z,18
2023-04-17T23:35:32.839Z,19.4
2023-04-17T23:37:34.934Z,23.6
2023-04-17T23:39:37.016Z,13.7
2023-04-17T23:41:39.092Z,32.8
2023-04-17T23:43:44.434Z,15.9
2023-04-17T23:45:46.508Z,19.4
2023-04-17T23:47:48.649Z,27.3
2023-04-17T23:49:50.697Z,14.5
2023-04-17T23:51:52.805Z,16
2023-04-17T23:53:54.845Z,20.8
2023-04-17T23:55:56.945Z,20.3
2023-04-17T23:58:02.260Z,21.7
